createdAt,value
2024-04-11T00:00:36.661Z,83.23
2024-04-11T00:01:41.805Z,83.14
2024-04-11T00:02:44.518Z,83.10
2024-04-11T00:03:46.456Z,82.82
2024-04-11T00:04:48.611Z,82.85
2024-04-11T00:05:50.801Z,83.13
2024-04-11T00:06:52.525Z,83.09
2024-04-11T00:07:54.150Z,82.88
2024-04-11T00:08:55.843Z,82.90
2024-04-11T00:09:57.553Z,82.96
2024-04-11T00:10:59.206Z,83.20
2024-04-11T00:12:00.978Z,83.24
2024-04-11T00:13:02.819Z,83.00
2024-04-11T00:14:04.540Z,83.21
2024-04-11T00:15:06.754Z,83.28
2024-04-11T00:16:11.272Z,82.85
2024-04-11T00:17:13.324Z,82.74
2024-04-11T00:18:15.043Z,82.74
2024-04-11T00:19:16.894Z,82.76
2024-04-11T00:20:18.595Z,82.75
2024-04-11T00:21:20.284Z,82.85
2024-04-11T00:22:21.915Z,82.52
2024-04-11T00:23:24.089Z,82.69
2024-04-11T00:24:25.799Z,82.52
2024-04-11T00:25:27.569Z,82.66
2024-04-11T00:26:29.219Z,82.92
2024-04-11T00:27:30.992Z,82.99
2024-04-11T00:28:35.701Z,82.87
2024-04-11T00:29:37.397Z,82.77
2024-04-11T00:30:39.122Z,82.91
2024-04-11T00:31:43.357Z,82.67
2024-04-11T00:32:45.187Z,82.69
2024-04-11T00:33:47.178Z,83.05
2024-04-11T00:34:48.981Z,82.86
2024-04-11T00:35:52.668Z,83.21
2024-04-11T00:36:54.466Z,83.19
2024-04-11T00:37:56.640Z,82.98
2024-04-11T00:38:58.604Z,82.71
2024-04-11T00:40:00.463Z,82.47
2024-04-11T00:41:05.321Z,82.52
2024-04-11T00:42:07.052Z,82.42
2024-04-11T00:43:09.147Z,82.70
2024-04-11T00:44:14.238Z,82.48
2024-04-11T00:45:15.891Z,82.68
2024-04-11T00:46:20.266Z,82.51
2024-04-11T00:47:24.731Z,82.86
2024-04-11T00:48:26.865Z,83.05
2024-04-11T00:49:29.047Z,83.38
2024-04-11T00:50:30.990Z,83.12
2024-04-11T00:51:33.007Z,82.95
2024-04-11T00:52:39.003Z,82.76
2024-04-11T00:53:41.093Z,82.98
2024-04-11T00:54:43.335Z,82.89
2024-04-11T00:55:45.012Z,83.11
2024-04-11T00:56:46.967Z,82.75
2024-04-11T00:57:48.752Z,83.05
2024-04-11T00:58:50.413Z,83.17
2024-04-11T00:59:55.139Z,82.60
2024-04-11T01:00:56.898Z,82.73
2024-04-11T01:01:58.681Z,82.47
2024-04-11T01:03:04.004Z,82.84
2024-04-11T01:04:08.654Z,82.39
2024-04-11T01:05:10.458Z,82.85
2024-04-11T01:06:12.136Z,82.78
2024-04-11T01:07:13.848Z,82.59
2024-04-11T01:08:15.487Z,82.81
2024-04-11T01:09:17.160Z,82.70
2024-04-11T01:10:18.985Z,82.58
2024-04-11T01:11:20.666Z,82.47
2024-04-11T01:12:22.532Z,82.28
2024-04-11T01:13:24.417Z,82.49
2024-04-11T01:14:26.735Z,82.34
2024-04-11T01:15:28.470Z,82.29
2024-04-11T01:16:31.060Z,82.43
2024-04-11T01:17:32.818Z,82.48
2024-04-11T01:18:37.210Z,82.35
2024-04-11T01:19:39.099Z,82.09
2024-04-11T01:20:40.885Z,82.12
2024-04-11T01:21:42.611Z,82.36
2024-04-11T01:22:46.803Z,82.31
2024-04-11T01:23:48.423Z,82.87
2024-04-11T01:24:50.189Z,82.75
2024-04-11T01:25:51.857Z,82.58
2024-04-11T01:27:03.142Z,82.97
2024-04-11T01:28:05.406Z,82.81
2024-04-11T01:29:07.106Z,83.22
2024-04-11T01:30:10.039Z,82.82
2024-04-11T01:31:11.732Z,82.91
2024-04-11T01:32:13.440Z,83.17
2024-04-11T01:33:15.211Z,83.10
2024-04-11T01:34:17.359Z,83.33
2024-04-11T01:35:19.270Z,82.98
2024-04-11T01:36:21.098Z,83.11
2024-04-11T01:37:22.811Z,82.91
2024-04-11T01:38:27.257Z,83.09
2024-04-11T01:39:29.054Z,83.04
2024-04-11T01:40:35.194Z,82.82
2024-04-11T01:41:37.904Z,82.94
2024-04-11T01:42:39.534Z,82.95
2024-04-11T01:43:41.203Z,82.91
2024-04-11T01:44:43.034Z,82.94
2024-04-11T01:45:44.743Z,82.76
2024-04-11T01:46:46.396Z,83.03
2024-04-11T01:47:48.177Z,83.08
2024-04-11T01:48:49.984Z,82.97
2024-04-11T01:49:51.782Z,82.73
2024-04-11T01:50:53.575Z,82.68
2024-04-11T01:51:55.252Z,82.65
2024-04-11T01:52:56.924Z,82.46
2024-04-11T01:54:01.301Z,82.44
2024-04-11T01:55:03.093Z,82.37
2024-04-11T01:56:05.513Z,82.45
2024-04-11T01:57:07.740Z,82.53
2024-04-11T01:58:09.427Z,82.30
2024-04-11T01:59:11.013Z,82.51
2024-04-11T02:00:13.502Z,82.62
2024-04-11T02:01:15.200Z,82.84
2024-04-11T02:02:16.987Z,82.45
2024-04-11T02:03:18.773Z,82.05
2024-04-11T02:04:20.609Z,82.26
2024-04-11T02:05:22.312Z,82.40
2024-04-11T02:06:23.968Z,82.01
2024-04-11T02:07:25.709Z,82.28
2024-04-11T02:08:27.605Z,82.28
2024-04-11T02:09:31.960Z,81.98
2024-04-11T02:10:33.705Z,82.14
2024-04-11T02:11:35.404Z,82.20
2024-04-11T02:12:37.222Z,82.30
2024-04-11T02:13:38.939Z,82.24
2024-04-11T02:14:40.578Z,81.79
2024-04-11T02:15:42.238Z,81.58
2024-04-11T02:16:44.039Z,81.61
2024-04-11T02:17:45.829Z,81.84
2024-04-11T02:18:47.653Z,81.62
2024-04-11T02:19:49.435Z,81.67
2024-04-11T02:20:51.706Z,82.02
2024-04-11T02:21:56.017Z,82.25
2024-04-11T02:22:58.180Z,81.94
2024-04-11T02:24:00.272Z,82.18
2024-04-11T02:25:05.751Z,83.33
2024-04-11T02:26:07.503Z,83.32
2024-04-11T02:27:09.187Z,83.29
2024-04-11T02:28:10.816Z,82.99
2024-04-11T02:29:12.484Z,82.81
2024-04-11T02:30:14.296Z,82.56
2024-04-11T02:31:16.005Z,82.91
2024-04-11T02:32:17.790Z,82.91
2024-04-11T02:33:19.721Z,82.89
2024-04-11T02:34:21.757Z,83.26
2024-04-11T02:35:23.831Z,83.17
2024-04-11T02:36:25.658Z,83.11
2024-04-11T02:37:27.306Z,83.56
2024-04-11T02:38:29.023Z,83.21
2024-04-11T02:39:30.705Z,83.34
2024-04-11T02:40:35.044Z,82.85
2024-04-11T02:41:36.714Z,82.75
2024-04-11T02:42:38.517Z,82.81
2024-04-11T02:43:40.258Z,83.06
2024-04-11T02:44:41.897Z,83.23
2024-04-11T02:45:43.620Z,83.52
2024-04-11T02:46:45.287Z,83.57
2024-04-11T02:47:47.079Z,83.16
2024-04-11T02:48:49.351Z,83.29
2024-04-11T02:49:51.182Z,83.57
2024-04-11T02:50:53.100Z,83.12
2024-04-11T02:51:54.754Z,83.11
2024-04-11T02:52:56.397Z,82.84
2024-04-11T02:53:58.180Z,83.04
2024-04-11T02:55:00.027Z,83.00
2024-04-11T02:56:04.682Z,82.77
2024-04-11T02:57:06.420Z,82.97
2024-04-11T02:58:08.069Z,82.53
2024-04-11T02:59:09.715Z,82.77
2024-04-11T03:00:12.237Z,82.24
2024-04-11T03:01:14.056Z,82.74
2024-04-11T03:02:15.819Z,82.86
2024-04-11T03:03:17.691Z,82.84
2024-04-11T03:04:19.610Z,82.97
2024-04-11T03:05:23.337Z,83.40
2024-04-11T03:06:25.176Z,83.19
2024-04-11T03:07:28.053Z,83.49
2024-04-11T03:08:29.796Z,83.38
2024-04-11T03:09:31.534Z,83.24
2024-04-11T03:10:33.246Z,83.11
2024-04-11T03:11:38.635Z,83.23
2024-04-11T03:12:40.497Z,83.34
2024-04-11T03:13:42.198Z,83.32
2024-04-11T03:14:46.887Z,83.52
2024-04-11T03:15:57.507Z,83.24
2024-04-11T03:16:59.224Z,82.92
2024-04-11T03:18:01.188Z,82.97
2024-04-11T03:19:03.001Z,83.10
2024-04-11T03:20:05.257Z,82.64
2024-04-11T03:21:08.801Z,82.90
2024-04-11T03:22:10.588Z,82.63
2024-04-11T03:23:12.253Z,82.57
2024-04-11T03:24:14.001Z,82.90
2024-04-11T03:25:15.919Z,82.99
2024-04-11T03:26:17.793Z,82.96
2024-04-11T03:27:28.125Z,82.86
2024-04-11T03:28:32.435Z,83.14
2024-04-11T03:29:34.373Z,83.25
2024-04-11T03:30:36.081Z,82.86
2024-04-11T03:31:40.808Z,83.02
2024-04-11T03:32:43.864Z,83.35
2024-04-11T03:33:45.856Z,83.35
2024-04-11T03:34:47.606Z,83.99
2024-04-11T03:35:55.958Z,84.32
2024-04-11T03:36:57.651Z,83.33
2024-04-11T03:37:59.687Z,86.27
2024-04-11T03:39:01.459Z,87.89
2024-04-11T03:40:03.353Z,88.43
2024-04-11T03:41:07.579Z,88.58
2024-04-11T03:42:09.488Z,87.65
2024-04-11T03:43:13.869Z,88.18
2024-04-11T03:44:15.700Z,88.18
2024-04-11T03:45:18.292Z,88.36
2024-04-11T03:46:21.094Z,88.66
2024-04-11T03:47:23.199Z,88.74
2024-04-11T03:48:25.116Z,89.05
2024-04-11T03:49:26.929Z,88.57
2024-04-11T03:50:29.377Z,88.50
2024-04-11T03:51:31.999Z,88.73
2024-04-11T03:52:33.706Z,88.60
2024-04-11T03:53:35.468Z,88.03
2024-04-11T03:54:37.123Z,87.66
2024-04-11T03:55:43.813Z,87.63
2024-04-11T03:56:47.086Z,87.39
2024-04-11T03:57:48.774Z,87.16
2024-04-11T03:58:53.654Z,86.75
2024-04-11T03:59:55.255Z,86.25
2024-04-11T04:00:56.971Z,88.70
2024-04-11T04:01:58.746Z,89.90
2024-04-11T04:03:00.621Z,90.16
2024-04-11T04:04:03.796Z,90.53
2024-04-11T04:05:06.617Z,89.97
2024-04-11T04:06:08.803Z,89.35
2024-04-11T04:07:12.191Z,89.50
2024-04-11T04:08:13.823Z,88.20
2024-04-11T04:09:15.617Z,88.19
2024-04-11T04:10:17.330Z,88.50
2024-04-11T04:11:20.406Z,88.33
2024-04-11T04:12:22.326Z,88.05
2024-04-11T04:13:24.003Z,87.82
2024-04-11T04:14:28.332Z,87.50
2024-04-11T04:15:30.200Z,87.64
2024-04-11T04:16:31.990Z,87.68
2024-04-11T04:17:34.014Z,87.51
2024-04-11T04:18:35.866Z,87.26
2024-04-11T04:19:37.507Z,86.81
2024-04-11T04:20:39.275Z,85.72
2024-04-11T04:21:41.302Z,86.45
2024-04-11T04:22:42.979Z,86.56
2024-04-11T04:23:45.162Z,86.46
2024-04-11T04:24:46.907Z,86.81
2024-04-11T04:25:55.115Z,86.20
2024-04-11T04:26:56.840Z,86.01
2024-04-11T04:27:58.653Z,85.96
2024-04-11T04:29:00.405Z,86.53
2024-04-11T04:30:06.028Z,86.87
2024-04-11T04:31:15.711Z,87.37
2024-04-11T04:32:17.474Z,87.48
2024-04-11T04:33:19.385Z,87.06
2024-04-11T04:34:21.237Z,86.74
2024-04-11T04:35:23.046Z,86.67
2024-04-11T04:36:26.363Z,86.69
2024-04-11T04:37:28.041Z,86.70
2024-04-11T04:38:29.813Z,86.64
2024-04-11T04:39:31.513Z,86.40
2024-04-11T04:40:33.178Z,86.14
2024-04-11T04:41:34.950Z,86.24
2024-04-11T04:42:36.646Z,86.36
2024-04-11T04:43:38.474Z,85.80
2024-04-11T04:44:40.196Z,85.78
2024-04-11T04:45:44.554Z,85.19
2024-04-11T04:46:46.212Z,85.23
2024-04-11T04:47:47.928Z,85.51
2024-04-11T04:48:50.343Z,85.73
2024-04-11T04:49:52.031Z,85.38
2024-04-11T04:50:53.796Z,85.48
2024-04-11T04:51:55.514Z,85.26
2024-04-11T04:52:57.146Z,85.23
2024-04-11T04:54:02.021Z,85.39
2024-04-11T04:55:04.353Z,85.70
2024-04-11T04:56:07.798Z,86.05
2024-04-11T04:57:10.732Z,85.71
2024-04-11T04:58:12.402Z,85.89
2024-04-11T04:59:14.397Z,85.88
2024-04-11T05:00:16.779Z,85.82
2024-04-11T05:01:21.436Z,85.82
2024-04-11T05:02:23.191Z,85.94
2024-04-11T05:03:25.055Z,85.87
2024-04-11T05:04:26.977Z,85.08
2024-04-11T05:05:28.824Z,86.03
2024-04-11T05:06:30.693Z,86.82
2024-04-11T05:07:32.458Z,86.75
2024-04-11T05:08:34.397Z,86.83
2024-04-11T05:09:36.333Z,86.90
2024-04-11T05:10:38.145Z,86.72
2024-04-11T05:11:42.796Z,86.45
2024-04-11T05:12:44.702Z,86.57
2024-04-11T05:13:49.327Z,86.26
2024-04-11T05:14:51.657Z,85.90
2024-04-11T05:15:57.523Z,86.26
2024-04-11T05:17:01.892Z,86.20
2024-04-11T05:18:04.132Z,86.18
2024-04-11T05:19:06.064Z,86.39
2024-04-11T05:20:08.598Z,86.08
2024-04-11T05:21:12.271Z,85.89
2024-04-11T05:22:14.359Z,85.54
2024-04-11T05:23:16.037Z,85.52
2024-04-11T05:24:17.737Z,85.75
2024-04-11T05:25:19.395Z,85.95
2024-04-11T05:26:21.259Z,85.68
2024-04-11T05:27:23.055Z,85.68
2024-04-11T05:28:24.719Z,85.61
2024-04-11T05:29:26.489Z,85.45
2024-04-11T05:30:29.349Z,85.66
2024-04-11T05:31:31.983Z,85.92
2024-04-11T05:32:38.655Z,85.72
2024-04-11T05:33:40.752Z,85.67
2024-04-11T05:34:42.984Z,85.35
2024-04-11T05:35:44.757Z,86.51
2024-04-11T05:36:46.408Z,86.88
2024-04-11T05:37:48.089Z,86.94
2024-04-11T05:38:49.887Z,87.07
2024-04-11T05:39:51.687Z,86.74
2024-04-11T05:40:53.387Z,87.25
2024-04-11T05:41:55.149Z,88.09
2024-04-11T05:42:56.919Z,87.60
2024-04-11T05:43:58.603Z,87.88
2024-04-11T05:45:00.330Z,87.66
2024-04-11T05:46:01.960Z,87.45
2024-04-11T05:47:04.098Z,88.26
2024-04-11T05:48:11.537Z,89.83
2024-04-11T05:49:14.014Z,90.18
2024-04-11T05:50:16.166Z,90.34
2024-04-11T05:51:17.930Z,90.12
2024-04-11T05:52:19.627Z,90.10
2024-04-11T05:53:21.463Z,90.08
2024-04-11T05:54:30.370Z,89.41
2024-04-11T05:55:35.157Z,89.49
2024-04-11T05:56:37.092Z,89.54
2024-04-11T05:57:38.811Z,89.64
2024-04-11T05:58:41.656Z,89.99
2024-04-11T05:59:43.375Z,89.92
2024-04-11T06:00:45.289Z,89.76
2024-04-11T06:01:47.020Z,89.88
2024-04-11T06:02:48.759Z,89.81
2024-04-11T06:03:53.226Z,89.72
2024-04-11T06:04:54.944Z,89.84
2024-04-11T06:05:56.829Z,89.63
2024-04-11T06:07:00.797Z,89.62
2024-04-11T06:08:02.354Z,90.08
2024-04-11T06:09:04.270Z,89.59
2024-04-11T06:10:06.755Z,89.86
2024-04-11T06:11:08.524Z,89.43
2024-04-11T06:12:10.428Z,89.48
2024-04-11T06:13:12.153Z,89.37
2024-04-11T06:14:13.851Z,88.76
2024-04-11T06:15:15.604Z,87.74
2024-04-11T06:16:17.811Z,87.76
2024-04-11T06:17:19.596Z,87.38
2024-04-11T06:18:21.570Z,86.93
2024-04-11T06:19:29.002Z,85.94
2024-04-11T06:20:30.694Z,84.71
2024-04-11T06:21:32.357Z,85.18
2024-04-11T06:22:34.002Z,85.06
2024-04-11T06:23:35.632Z,84.35
2024-04-11T06:24:37.295Z,83.47
2024-04-11T06:25:39.785Z,83.08
2024-04-11T06:26:41.538Z,83.39
2024-04-11T06:27:43.228Z,82.69
2024-04-11T06:28:44.930Z,82.50
2024-04-11T06:29:46.600Z,82.26
2024-04-11T06:30:52.310Z,82.46
2024-04-11T06:31:54.003Z,82.38
2024-04-11T06:32:55.839Z,82.26
2024-04-11T06:33:57.840Z,80.94
2024-04-11T06:35:02.377Z,81.15
2024-04-11T06:36:04.465Z,80.35
2024-04-11T06:37:06.216Z,80.21
2024-04-11T06:38:07.915Z,79.43
2024-04-11T06:39:09.612Z,80.93
2024-04-11T06:40:12.004Z,80.81
2024-04-11T06:41:13.788Z,80.50
2024-04-11T06:42:15.567Z,79.84
2024-04-11T06:43:17.516Z,78.93
2024-04-11T06:44:19.170Z,79.41
2024-04-11T06:45:20.831Z,78.56
2024-04-11T06:46:22.652Z,78.88
2024-04-11T06:47:32.138Z,79.56
2024-04-11T06:48:37.331Z,80.00
2024-04-11T06:49:39.172Z,78.79
2024-04-11T06:50:43.598Z,78.34
2024-04-11T06:51:45.506Z,78.57
2024-04-11T06:52:47.252Z,78.21
2024-04-11T06:53:49.034Z,77.36
2024-04-11T06:54:50.805Z,78.14
2024-04-11T06:55:57.594Z,77.33
2024-04-11T06:57:00.783Z,76.82
2024-04-11T06:58:03.467Z,76.32
2024-04-11T06:59:05.146Z,75.58
2024-04-11T07:00:08.306Z,76.02
2024-04-11T07:01:10.191Z,75.57
2024-04-11T07:02:14.841Z,76.58
2024-04-11T07:03:16.707Z,76.35
2024-04-11T07:04:18.563Z,74.78
2024-04-11T07:05:20.227Z,76.64
2024-04-11T07:06:24.662Z,76.01
2024-04-11T07:07:30.575Z,75.77
2024-04-11T07:08:32.562Z,75.18
2024-04-11T07:09:37.160Z,74.51
2024-04-11T07:10:38.839Z,74.04
2024-04-11T07:11:40.604Z,75.68
2024-04-11T07:12:42.977Z,74.07
2024-04-11T07:13:44.614Z,73.09
2024-04-11T07:14:46.509Z,73.21
2024-04-11T07:15:48.239Z,72.89
2024-04-11T07:16:49.855Z,73.46
2024-04-11T07:17:51.580Z,72.07
2024-04-11T07:18:54.944Z,72.22
2024-04-11T07:19:56.772Z,73.12
2024-04-11T07:20:58.403Z,71.49
2024-04-11T07:22:02.746Z,70.27
2024-04-11T07:23:04.714Z,72.03
2024-04-11T07:24:07.214Z,71.49
2024-04-11T07:25:08.975Z,70.95
2024-04-11T07:26:13.721Z,70.87
2024-04-11T07:27:15.368Z,70.34
2024-04-11T07:28:17.027Z,69.05
2024-04-11T07:29:18.789Z,69.20
2024-04-11T07:30:20.588Z,69.43
2024-04-11T07:31:22.588Z,67.66
2024-04-11T07:32:24.334Z,68.35
2024-04-11T07:33:26.694Z,67.91
2024-04-11T07:34:28.399Z,68.23
2024-04-11T07:35:30.118Z,66.90
2024-04-11T07:36:32.204Z,67.18
2024-04-11T07:37:36.454Z,66.64
2024-04-11T07:38:38.098Z,65.25
2024-04-11T07:39:39.753Z,66.43
2024-04-11T07:40:41.456Z,67.72
2024-04-11T07:41:43.193Z,65.96
2024-04-11T07:42:44.948Z,67.09
2024-04-11T07:43:49.442Z,64.36
2024-04-11T07:44:53.726Z,65.56
2024-04-11T07:45:55.385Z,64.47
2024-04-11T07:47:06.438Z,64.18
2024-04-11T07:48:18.056Z,63.33
2024-04-11T07:49:21.700Z,63.15
2024-04-11T07:50:23.514Z,61.56
2024-04-11T07:51:25.764Z,62.93
2024-04-11T07:52:27.528Z,61.88
2024-04-11T07:53:34.420Z,61.72
2024-04-11T07:54:41.093Z,61.67
2024-04-11T07:55:49.112Z,62.50
2024-04-11T07:56:54.705Z,62.06
2024-04-11T07:57:57.083Z,57.92
2024-04-11T07:58:58.746Z,57.52
2024-04-11T08:00:00.659Z,58.34
2024-04-11T08:01:02.652Z,57.49
2024-04-11T08:02:04.711Z,58.28
2024-04-11T08:03:07.452Z,58.91
2024-04-11T08:04:09.383Z,60.01
2024-04-11T08:05:11.094Z,60.67
2024-04-11T08:06:15.161Z,56.32
2024-04-11T08:07:16.901Z,56.35
2024-04-11T08:08:18.539Z,56.52
2024-04-11T08:09:22.891Z,55.91
2024-04-11T08:10:26.322Z,54.93
2024-04-11T08:11:28.728Z,53.01
2024-04-11T08:12:30.426Z,53.73
2024-04-11T08:13:35.510Z,51.44
2024-04-11T08:14:42.068Z,51.93
2024-04-11T08:15:44.218Z,53.50
2024-04-11T08:16:45.944Z,52.69
2024-04-11T08:17:54.940Z,52.59
2024-04-11T08:18:56.686Z,53.07
2024-04-11T08:20:00.941Z,52.53
2024-04-11T08:21:02.782Z,53.55
2024-04-11T08:22:04.726Z,53.79
2024-04-11T08:23:11.986Z,52.12
2024-04-11T08:24:22.357Z,52.46
2024-04-11T08:25:24.022Z,51.52
2024-04-11T08:26:25.714Z,50.91
2024-04-11T08:27:27.574Z,51.00
2024-04-11T08:28:29.210Z,52.15
2024-04-11T08:29:30.868Z,51.38
2024-04-11T08:30:32.526Z,50.58
2024-04-11T08:31:34.260Z,49.83
2024-04-11T08:32:36.396Z,50.14
2024-04-11T08:33:41.792Z,48.46
2024-04-11T08:34:43.634Z,48.92
2024-04-11T08:35:45.314Z,49.36
2024-04-11T08:36:47.175Z,49.23
2024-04-11T08:37:49.732Z,49.57
2024-04-11T08:38:51.490Z,47.48
2024-04-11T08:39:56.085Z,46.46
2024-04-11T08:41:00.239Z,48.10
2024-04-11T08:42:02.388Z,48.10
2024-04-11T08:43:04.409Z,49.26
2024-04-11T08:44:06.351Z,48.08
2024-04-11T08:45:09.287Z,47.09
2024-04-11T08:46:11.267Z,46.76
2024-04-11T08:47:13.033Z,45.54
2024-04-11T08:48:14.886Z,45.41
2024-04-11T08:49:16.962Z,46.62
2024-04-11T08:50:19.113Z,45.84
2024-04-11T08:51:22.447Z,44.28
2024-04-11T08:52:24.504Z,43.99
2024-04-11T08:53:27.192Z,43.40
2024-04-11T08:54:30.074Z,43.75
2024-04-11T08:55:34.368Z,44.85
2024-04-11T08:56:36.148Z,44.72
2024-04-11T08:57:38.033Z,44.13
2024-04-11T08:58:43.028Z,44.00
2024-04-11T08:59:47.032Z,43.90
2024-04-11T09:00:51.059Z,43.75
2024-04-11T09:01:55.727Z,44.43
2024-04-11T09:02:57.607Z,44.22
2024-04-11T09:03:59.410Z,43.78
2024-04-11T09:05:07.974Z,44.02
2024-04-11T09:06:16.656Z,43.64
2024-04-11T09:07:20.359Z,44.12
2024-04-11T09:08:22.169Z,43.08
2024-04-11T09:09:23.968Z,44.33
2024-04-11T09:10:25.666Z,44.10
2024-04-11T09:11:30.141Z,42.58
2024-04-11T09:12:32.280Z,43.67
2024-04-11T09:13:34.102Z,43.48
2024-04-11T09:14:36.476Z,42.46
2024-04-11T09:15:38.246Z,43.40
2024-04-11T09:16:39.952Z,42.73
2024-04-11T09:17:42.725Z,42.50
2024-04-11T09:18:44.467Z,43.70
2024-04-11T09:19:46.174Z,42.21
2024-04-11T09:20:48.694Z,43.05
2024-04-11T09:21:50.427Z,42.24
2024-04-11T09:22:56.665Z,43.21
2024-04-11T09:24:00.241Z,43.97
2024-04-11T09:25:05.055Z,42.33
2024-04-11T09:26:06.693Z,42.91
2024-04-11T09:27:11.216Z,43.50
2024-04-11T09:28:12.872Z,43.05
2024-04-11T09:29:15.019Z,42.70
2024-04-11T09:30:17.009Z,42.47
2024-04-11T09:31:18.780Z,43.69
2024-04-11T09:32:21.870Z,44.24
2024-04-11T09:33:25.795Z,41.93
2024-04-11T09:34:29.194Z,42.80
2024-04-11T09:35:36.173Z,43.02
2024-04-11T09:36:40.655Z,43.83
2024-04-11T09:37:42.430Z,42.68
2024-04-11T09:38:48.456Z,44.47
2024-04-11T09:39:51.930Z,43.04
2024-04-11T09:40:55.716Z,43.24
2024-04-11T09:41:59.576Z,44.42
2024-04-11T09:43:07.530Z,41.81
2024-04-11T09:44:09.693Z,43.56
2024-04-11T09:45:12.134Z,42.61
2024-04-11T09:46:14.651Z,43.13
2024-04-11T09:47:18.513Z,40.62
2024-04-11T09:48:20.627Z,39.70
2024-04-11T09:49:25.097Z,38.30
2024-04-11T09:50:27.479Z,38.88
2024-04-11T09:51:30.253Z,39.06
2024-04-11T09:52:33.010Z,39.24
2024-04-11T09:53:35.233Z,38.87
2024-04-11T09:54:38.903Z,40.24
2024-04-11T09:55:40.560Z,40.30
2024-04-11T09:56:46.255Z,39.47
2024-04-11T09:57:48.536Z,40.12
2024-04-11T09:58:52.975Z,40.30
2024-04-11T09:59:57.804Z,40.07
2024-04-11T10:01:00.368Z,39.75
2024-04-11T10:02:03.222Z,39.12
2024-04-11T10:03:05.335Z,38.77
2024-04-11T10:04:08.500Z,39.32
2024-04-11T10:05:10.399Z,38.44
2024-04-11T10:06:13.335Z,38.71
2024-04-11T10:07:19.738Z,38.76
2024-04-11T10:08:24.677Z,39.55
2024-04-11T10:09:26.492Z,39.72
2024-04-11T10:10:29.384Z,39.54
2024-04-11T10:11:34.762Z,39.63
2024-04-11T10:12:42.714Z,40.33
2024-04-11T10:13:48.181Z,39.38
2024-04-11T10:14:57.221Z,39.07
2024-04-11T10:16:05.347Z,39.49
2024-04-11T10:17:07.048Z,38.97
2024-04-11T10:18:12.253Z,39.64
2024-04-11T10:19:23.190Z,39.97
2024-04-11T10:20:25.301Z,38.96
2024-04-11T10:21:36.776Z,38.75
2024-04-11T10:22:45.694Z,38.01
2024-04-11T10:23:47.364Z,38.20
2024-04-11T10:24:51.613Z,37.93
2024-04-11T10:25:53.350Z,39.14
2024-04-11T10:26:55.210Z,37.52
2024-04-11T10:27:56.959Z,38.06
2024-04-11T10:28:58.809Z,38.76
2024-04-11T10:30:05.382Z,38.15
2024-04-11T10:31:09.647Z,37.28
2024-04-11T10:32:15.273Z,37.40
2024-04-11T10:33:18.396Z,37.55
2024-04-11T10:34:22.631Z,37.83
2024-04-11T10:35:24.354Z,38.14
2024-04-11T10:36:26.482Z,37.90
2024-04-11T10:37:28.934Z,37.51
2024-04-11T10:38:30.638Z,36.91
2024-04-11T10:39:35.699Z,35.91
2024-04-11T10:40:37.615Z,36.03
2024-04-11T10:41:39.476Z,36.86
2024-04-11T10:42:45.414Z,36.13
2024-04-11T10:43:52.600Z,36.49
2024-04-11T10:44:54.900Z,37.45
2024-04-11T10:45:59.866Z,37.36
2024-04-11T10:47:01.650Z,38.37
2024-04-11T10:48:05.830Z,38.41
2024-04-11T10:49:07.702Z,37.96
2024-04-11T10:50:10.063Z,36.59
2024-04-11T10:51:11.691Z,37.63
2024-04-11T10:52:13.756Z,36.65
2024-04-11T10:53:19.196Z,36.76
2024-04-11T10:54:21.064Z,37.50
2024-04-11T10:55:22.899Z,37.19
2024-04-11T10:56:24.955Z,37.12
2024-04-11T10:57:26.775Z,37.65
2024-04-11T10:58:32.097Z,37.02
2024-04-11T10:59:33.893Z,37.31
2024-04-11T11:00:37.556Z,37.27
2024-04-11T11:01:49.538Z,38.22
2024-04-11T11:02:57.434Z,38.00
2024-04-11T11:03:59.386Z,37.49
2024-04-11T11:05:01.210Z,37.33
2024-04-11T11:06:11.209Z,37.38
2024-04-11T11:07:12.960Z,37.00
2024-04-11T11:08:15.638Z,37.64
2024-04-11T11:09:18.515Z,38.00
2024-04-11T11:10:20.411Z,36.40
2024-04-11T11:11:24.824Z,37.91
2024-04-11T11:12:28.768Z,37.80
2024-04-11T11:13:33.781Z,38.88
2024-04-11T11:14:37.334Z,37.30
2024-04-11T11:15:38.990Z,37.17
2024-04-11T11:16:43.240Z,37.58
2024-04-11T11:17:44.919Z,37.57
2024-04-11T11:18:46.655Z,37.92
2024-04-11T11:19:49.455Z,38.74
2024-04-11T11:20:51.422Z,38.91
2024-04-11T11:21:53.185Z,37.57
2024-04-11T11:22:55.194Z,36.42
2024-04-11T11:23:56.959Z,38.09
2024-04-11T11:24:58.588Z,37.34
2024-04-11T11:26:00.248Z,37.36
2024-04-11T11:27:03.318Z,37.87
2024-04-11T11:28:05.396Z,38.89
2024-04-11T11:29:07.614Z,36.50
2024-04-11T11:30:09.915Z,37.53
2024-04-11T11:31:11.663Z,38.05
2024-04-11T11:32:18.212Z,38.80
2024-04-11T11:33:20.066Z,38.51
2024-04-11T11:34:21.785Z,37.50
2024-04-11T11:35:23.437Z,37.20
2024-04-11T11:36:25.164Z,37.03
2024-04-11T11:37:29.932Z,38.24
2024-04-11T11:38:31.624Z,37.00
2024-04-11T11:39:34.033Z,38.33
2024-04-11T11:40:35.734Z,38.36
2024-04-11T11:41:37.421Z,37.21
2024-04-11T11:42:39.078Z,37.24
2024-04-11T11:43:48.153Z,36.52
2024-04-11T11:44:51.164Z,36.85
2024-04-11T11:45:52.784Z,38.12
2024-04-11T11:46:54.585Z,37.38
2024-04-11T11:47:59.495Z,37.67
2024-04-11T11:49:01.373Z,37.41
2024-04-11T11:50:03.975Z,36.73
2024-04-11T11:51:05.745Z,37.69
2024-04-11T11:52:07.795Z,37.83
2024-04-11T11:53:09.399Z,37.52
2024-04-11T11:54:11.161Z,37.10
2024-04-11T11:55:12.945Z,36.15
2024-04-11T11:56:14.656Z,37.15
2024-04-11T11:57:16.392Z,36.66
2024-04-11T11:58:18.031Z,37.17
2024-04-11T11:59:19.642Z,37.99
2024-04-11T12:00:22.370Z,37.03
2024-04-11T12:01:24.160Z,35.78
2024-04-11T12:02:26.083Z,36.23
2024-04-11T12:03:34.814Z,36.51
2024-04-11T12:04:39.755Z,36.27
2024-04-11T12:05:41.553Z,36.20
2024-04-11T12:06:43.205Z,37.28
2024-04-11T12:07:46.372Z,36.51
2024-04-11T12:08:48.121Z,37.22
2024-04-11T12:09:50.146Z,36.56
2024-04-11T12:10:51.851Z,36.67
2024-04-11T12:11:53.594Z,37.58
2024-04-11T12:12:56.902Z,37.14
2024-04-11T12:13:58.762Z,36.29
2024-04-11T12:15:03.574Z,35.31
2024-04-11T12:16:06.330Z,34.49
2024-04-11T12:17:07.993Z,34.55
2024-04-11T12:18:09.659Z,33.85
2024-04-11T12:19:14.083Z,33.63
2024-04-11T12:20:15.783Z,33.39
2024-04-11T12:21:17.667Z,34.61
2024-04-11T12:22:19.349Z,34.56
2024-04-11T12:23:21.596Z,32.77
2024-04-11T12:24:23.233Z,34.25
2024-04-11T12:25:24.886Z,34.17
2024-04-11T12:26:26.688Z,32.00
2024-04-11T12:27:28.429Z,32.06
2024-04-11T12:28:30.969Z,33.35
2024-04-11T12:29:32.870Z,34.17
2024-04-11T12:30:34.570Z,33.98
2024-04-11T12:31:36.366Z,34.64
2024-04-11T12:32:38.069Z,35.10
2024-04-11T12:33:39.965Z,34.38
2024-04-11T12:34:44.637Z,33.63
2024-04-11T12:35:46.274Z,34.73
2024-04-11T12:36:48.030Z,34.42
2024-04-11T12:37:49.789Z,34.78
2024-04-11T12:38:51.509Z,34.71
2024-04-11T12:39:53.633Z,34.97
2024-04-11T12:40:55.400Z,35.23
2024-04-11T12:41:57.091Z,34.79
2024-04-11T12:42:58.845Z,36.21
2024-04-11T12:44:00.505Z,33.96
2024-04-11T12:45:02.415Z,34.31
2024-04-11T12:46:04.529Z,35.29
2024-04-11T12:47:06.665Z,34.54
2024-04-11T12:48:08.748Z,34.53
2024-04-11T12:49:13.696Z,34.24
2024-04-11T12:50:18.563Z,33.45
2024-04-11T12:51:20.303Z,33.47
2024-04-11T12:52:22.058Z,34.17
2024-04-11T12:53:23.847Z,34.48
2024-04-11T12:54:27.161Z,34.45
2024-04-11T12:55:28.854Z,34.48
2024-04-11T12:56:30.523Z,34.12
2024-04-11T12:57:32.286Z,33.97
2024-04-11T12:58:34.023Z,33.93
2024-04-11T12:59:36.939Z,33.30
2024-04-11T13:00:40.151Z,34.02
2024-04-11T13:01:41.830Z,33.64
2024-04-11T13:02:43.631Z,34.59
2024-04-11T13:03:45.466Z,34.08
2024-04-11T13:04:48.262Z,34.98
2024-04-11T13:05:52.776Z,34.12
2024-04-11T13:06:55.414Z,34.00
2024-04-11T13:07:57.002Z,33.86
2024-04-11T13:08:59.803Z,35.40
2024-04-11T13:10:01.564Z,35.85
2024-04-11T13:11:03.945Z,36.51
2024-04-11T13:12:06.026Z,36.67
2024-04-11T13:13:07.716Z,37.12
2024-04-11T13:14:09.409Z,36.73
2024-04-11T13:15:11.771Z,36.27
2024-04-11T13:16:13.795Z,36.03
2024-04-11T13:17:15.598Z,36.31
2024-04-11T13:18:17.706Z,36.35
2024-04-11T13:19:19.647Z,36.53
2024-04-11T13:20:21.344Z,35.39
2024-04-11T13:21:28.170Z,36.19
2024-04-11T13:22:29.792Z,36.09
2024-04-11T13:23:31.511Z,36.13
2024-04-11T13:24:33.732Z,37.08
2024-04-11T13:25:35.391Z,36.29
2024-04-11T13:26:37.391Z,36.79
2024-04-11T13:27:39.515Z,37.57